CheckWX is a tool to help pilots better visualize weather data.  It is not intended as a substitute for an official pre-flight weather briefing.

12:43:56 UTC

KSAT TAF
San Antonio International Airport
San Antonio, Texas, USA
KSAT 161138Z 1612/1718 16012KT P6SM OVC020 FM161600 18013G23KT P6SM BKN035 FM161800 18013G23KT P6SM VCTS BKN050CB FM170100 14013KT P6SM VCTS OVC070CB FM170600 10008KT P6SM VCTS OVC035CB

Jun-16@
12:00 UTC

Jun-16 @ 12:00 UTC

Jun-16@
16:00 UTC

Jun-16 @ 16:00 UTC

KSAT 161138Z 1612/1718 16012KT P6SM OVC020
Wind
  • 160° at 12 KTS
Cloud Levels
  • Overcast at 2,000' AGL

Jun-16@
16:00 UTC

Jun-16 @ 16:00 UTC

Jun-16@
18:00 UTC

Jun-16 @ 18:00 UTC

FM161600 18013G23KT P6SM BKN035

From

From Standard forecast or significant change

Wind
  • 180° at 13 KTS
  • {Gusting to 23 KTS
Cloud Levels
  • Broken at 3,500' AGL

Jun-16@
18:00 UTC

Jun-16 @ 18:00 UTC

Jun-17@
01:00 UTC

Jun-17 @ 01:00 UTC

FM161800 18013G23KT P6SM VCTS BKN050CB

From

From Standard forecast or significant change

Wind
  • 180° at 13 KTS
  • {Gusting to 23 KTS
Conditions
Area Thunderstorm
Cloud Levels
  • Broken at 5,000' AGL

Jun-17@
01:00 UTC

Jun-17 @ 01:00 UTC

Jun-17@
06:00 UTC

Jun-17 @ 06:00 UTC

FM170100 14013KT P6SM VCTS OVC070CB

From

From Standard forecast or significant change

Wind
  • 140° at 13 KTS
Conditions
Area Thunderstorm
Cloud Levels
  • Overcast at 7,000' AGL

Jun-17@
06:00 UTC

Jun-17 @ 06:00 UTC

Jun-17@
18:00 UTC

Jun-17 @ 18:00 UTC

FM170600 10008KT P6SM VCTS OVC035CB

From

From Standard forecast or significant change

Wind
  • 100° at 8 KTS
Conditions
Area Thunderstorm
Cloud Levels
  • Overcast at 3,500' AGL